Time;durP1;ratioP1;P1;durP2;ratioP2;P2;SDS_P1;SDS_P2;PMS_P1;PMS_P2;Temp;Humidity;BMP_temperature;BMP_pressure;BME280_temperature;BME280_humidity;BME280_pressure;Samples;Min_cycle;Max_cycle;Signal;HPM_P1;HPM_P2
2022/09/26 00:01:18;;;;;;;1.80;1.70;;;11.80;99.90;;;;;;6224574;23;20001;-81
2022/09/26 00:03:50;;;;;;;1.98;1.80;;;11.80;99.90;;;;;;6199896;23;20008;-81
2022/09/26 00:06:16;;;;;;;1.90;1.73;;;11.80;99.90;;;;;;6232762;22;20020;-80
2022/09/26 00:08:43;;;;;;;3.60;1.67;;;11.80;99.90;;;;;;6241318;22;20011;-79
2022/09/26 00:11:11;;;;;;;2.08;1.98;;;11.80;99.90;;;;;;6215188;23;20031;-81
2022/09/26 00:13:40;;;;;;;2.97;2.10;;;11.80;99.90;;;;;;6234756;23;20005;-80
2022/09/26 00:16:06;;;;;;;2.97;2.50;;;11.80;99.90;;;;;;6229360;23;20075;-82
2022/09/26 00:18:32;;;;;;;5.45;2.42;;;11.70;99.90;;;;;;6197251;23;20036;-82
2022/09/26 00:21:12;;;;;;;4.20;2.50;;;11.70;99.90;;;;;;6224136;23;20001;-81
2022/09/26 00:23:38;;;;;;;4.35;2.60;;;11.70;99.90;;;;;;6226308;23;20009;-81
2022/09/26 00:26:05;;;;;;;2.47;2.28;;;11.70;99.90;;;;;;6229088;23;20369;-82
2022/09/26 00:28:31;;;;;;;2.58;2.35;;;11.70;99.90;;;;;;6225534;23;20163;-80
2022/09/26 00:31:01;;;;;;;2.33;2.13;;;11.70;99.90;;;;;;6197168;23;20005;-80
2022/09/26 00:33:27;;;;;;;3.00;2.50;;;11.70;99.90;;;;;;6198237;23;20005;-81
2022/09/26 00:35:54;;;;;;;2.30;2.10;;;11.70;99.90;;;;;;6228934;23;20078;-82
2022/09/26 00:38:20;;;;;;;2.58;2.38;;;11.80;99.90;;;;;;6224865;23;20012;-81
2022/09/26 00:40:46;;;;;;;4.25;2.72;;;11.80;99.90;;;;;;6223650;23;20052;-81
2022/09/26 00:43:24;;;;;;;4.68;2.97;;;11.80;99.90;;;;;;6223807;23;20010;-81
2022/09/26 00:45:50;;;;;;;3.25;2.67;;;11.80;99.90;;;;;;6223011;23;20001;-81
2022/09/26 00:48:17;;;;;;;2.33;2.13;;;11.80;99.90;;;;;;6222858;23;20070;-81
2022/09/26 00:50:43;;;;;;;7.82;2.70;;;11.80;99.90;;;;;;6222680;23;20036;-81
2022/09/26 00:53:14;;;;;;;3.95;3.05;;;11.80;99.90;;;;;;6223358;23;20003;-82
2022/09/26 00:55:49;;;;;;;2.10;1.90;;;11.80;99.90;;;;;;6223330;23;20024;-82
2022/09/26 00:58:29;;;;;;;3.22;2.80;;;11.80;99.90;;;;;;6196111;23;20399;-82
2022/09/26 01:00:56;;;;;;;3.28;2.65;;;11.70;99.90;;;;;;6196379;23;20084;-81
2022/09/26 01:03:23;;;;;;;2.83;2.63;;;11.70;99.90;;;;;;6196735;23;20094;-81
2022/09/26 01:05:52;;;;;;;2.97;2.42;;;11.70;99.90;;;;;;6221936;23;20005;-82
2022/09/26 01:08:31;;;;;;;2.42;2.22;;;11.70;99.90;;;;;;6195615;23;20016;-80
2022/09/26 01:10:57;;;;;;;2.80;2.53;;;11.70;99.90;;;;;;6222305;23;19997;-82
2022/09/26 01:13:24;;;;;;;2.45;2.25;;;11.70;99.90;;;;;;6221829;23;19996;-81
2022/09/26 01:15:50;;;;;;;4.07;2.20;;;11.80;99.90;;;;;;6221659;23;19996;-81
2022/09/26 01:18:15;;;;;;;3.58;2.65;;;11.70;99.90;;;;;;6194577;23;20016;-81
2022/09/26 01:20:59;;;;;;;2.88;2.42;;;11.70;99.90;;;;;;6221161;23;20007;-81
2022/09/26 01:24:04;;;;;;;3.45;3.10;;;11.70;99.90;;;;;;6220342;23;20047;-81
2022/09/26 01:26:48;;;;;;;3.67;3.00;;;11.70;99.90;;;;;;6221448;23;20008;-81
2022/09/26 01:29:50;;;;;;;2.65;2.45;;;11.70;99.90;;;;;;6220800;23;20001;-81
2022/09/26 01:32:48;;;;;;;2.80;2.40;;;11.70;99.90;;;;;;6212921;23;19988;-80
2022/09/26 01:35:51;;;;;;;2.35;2.15;;;11.70;99.90;;;;;;6199412;23;20070;-80
2022/09/26 01:38:19;;;;;;;;;;;11.70;99.90;;;;;;6225771;23;20427;-81
2022/09/26 01:41:32;;;;;;;2.22;2.03;;;11.70;99.90;;;;;;6221634;23;19907;-81
2022/09/26 01:44:19;;;;;;;2.63;2.42;;;11.70;99.90;;;;;;6138073;23;20084;-80
2022/09/26 01:46:56;;;;;;;3.95;2.53;;;11.70;99.90;;;;;;6217192;23;20075;-80
2022/09/26 01:49:40;;;;;;;2.88;2.50;;;11.70;99.90;;;;;;6220163;23;20001;-81
2022/09/26 01:52:36;;;;;;;2.65;2.42;;;11.70;99.90;;;;;;6197290;23;20008;-81
2022/09/26 01:55:20;;;;;;;2.95;2.65;;;11.70;99.90;;;;;;6223429;23;20007;-81
2022/09/26 01:57:48;;;;;;;2.70;2.50;;;11.70;99.90;;;;;;6223191;23;20450;-81
2022/09/26 02:00:14;;;;;;;2.30;2.13;;;11.70;99.90;;;;;;6196360;23;20427;-81
2022/09/26 02:02:45;;;;;;;2.90;2.58;;;11.70;99.90;;;;;;6232922;22;20003;-79
2022/09/26 02:05:32;;;;;;;3.50;2.90;;;11.60;99.90;;;;;;6240890;22;20031;-79
2022/09/26 02:08:05;;;;;;;4.70;3.50;;;11.70;99.90;;;;;;6240474;22;20012;-80
2022/09/26 02:10:41;;;;;;;3.67;3.20;;;11.60;99.90;;;;;;6200636;23;20019;-80
2022/09/26 02:13:13;;;;;;;4.30;3.30;;;11.60;99.90;;;;;;6219200;23;20077;-81
2022/09/26 02:15:42;;;;;;;3.03;2.78;;;11.60;99.90;;;;;;6193915;23;20012;-81
2022/09/26 02:18:19;;;;;;;3.83;3.15;;;11.70;99.90;;;;;;6221590;23;20004;-82
2022/09/26 02:20:53;;;;;;;4.97;4.00;;;11.70;99.90;;;;;;6222547;23;20008;-81
2022/09/26 02:23:19;;;;;;;3.97;3.67;;;11.60;99.90;;;;;;6176386;23;20448;-78
2022/09/26 02:25:44;;;;;;;4.25;3.50;;;11.70;99.90;;;;;;6155191;23;20066;-77
2022/09/26 02:28:10;;;;;;;4.10;3.70;;;11.60;99.90;;;;;;6178378;23;20069;-80
2022/09/26 02:30:38;;;;;;;4.82;3.90;;;11.70;99.90;;;;;;6154328;23;20005;-78
2022/09/26 02:33:03;;;;;;;6.10;4.45;;;11.70;99.90;;;;;;6173053;23;20021;-79
2022/09/26 02:38:13;;;;;;;5.07;3.70;;;11.60;99.90;;;;;;6125749;23;20017;-79
2022/09/26 02:40:45;;;;;;;5.13;3.55;;;11.60;99.90;;;;;;6127569;23;20006;-78
2022/09/26 02:43:32;;;;;;;5.13;4.38;;;11.70;99.90;;;;;;6125929;23;20002;-78
2022/09/26 02:46:11;;;;;;;5.13;4.63;;;11.70;99.90;;;;;;6129144;23;20014;-81
2022/09/26 02:49:08;;;;;;;6.32;5.15;;;11.70;99.90;;;;;;6131551;23;19998;-80
2022/09/26 02:52:01;;;;;;;5.50;4.90;;;11.70;99.90;;;;;;6147789;23;20006;-77
2022/09/26 02:54:59;;;;;;;5.70;4.95;;;11.60;99.90;;;;;;6125254;23;19998;-79
2022/09/26 02:57:25;;;;;;;5.55;4.47;;;11.60;99.90;;;;;;6108265;23;20037;-77
2022/09/26 03:00:12;;;;;;;7.55;5.53;;;11.60;99.90;;;;;;6126880;23;20013;-78
2022/09/26 03:03:02;;;;;;;6.07;4.82;;;11.60;99.90;;;;;;6128537;23;20006;-78
2022/09/26 03:05:30;;;;;;;6.35;5.35;;;11.60;99.90;;;;;;6128122;23;20006;-78
2022/09/26 03:08:10;;;;;;;5.38;4.85;;;11.60;99.90;;;;;;6127251;23;20109;-83
2022/09/26 03:10:37;;;;;;;7.60;5.72;;;11.50;99.90;;;;;;6125618;23;20014;-78
2022/09/26 03:13:08;;;;;;;5.28;4.70;;;11.50;99.90;;;;;;6127629;23;20008;-79
2022/09/26 03:15:36;;;;;;;5.53;4.85;;;11.50;99.90;;;;;;6128419;23;20309;-79
2022/09/26 03:18:07;;;;;;;6.45;5.30;;;11.40;99.90;;;;;;6127970;23;19998;-78
2022/09/26 03:20:33;;;;;;;6.97;5.53;;;11.30;99.90;;;;;;6128100;23;20002;-77
2022/09/26 03:22:58;;;;;;;7.18;5.70;;;11.30;99.90;;;;;;6136405;23;20358;-79
2022/09/26 03:25:26;;;;;;;8.00;6.05;;;11.20;99.90;;;;;;6187392;23;20009;-77
2022/09/26 03:27:53;;;;;;;6.30;5.22;;;11.20;99.90;;;;;;6186939;23;20001;-78
2022/09/26 03:30:21;;;;;;;6.85;5.53;;;11.20;99.90;;;;;;6190354;23;20037;-77
2022/09/26 03:32:47;;;;;;;8.35;6.70;;;11.30;99.90;;;;;;6187461;23;20005;-80
2022/09/26 03:35:14;;;;;;;9.90;5.97;;;11.30;99.90;;;;;;6187827;23;20412;-79
2022/09/26 03:37:39;;;;;;;7.72;6.18;;;11.30;99.90;;;;;;6161223;23;20001;-79
2022/09/26 03:40:09;;;;;;;6.40;5.80;;;11.30;99.90;;;;;;6192299;23;19997;-79
2022/09/26 03:42:35;;;;;;;7.28;6.20;;;11.20;99.90;;;;;;6168728;23;20012;-77
2022/09/26 03:45:02;;;;;;;7.93;6.45;;;11.20;99.90;;;;;;6188607;23;20429;-78
2022/09/26 03:47:28;;;;;;;9.80;7.55;;;11.20;99.90;;;;;;6187356;23;20365;-76
2022/09/26 03:49:54;;;;;;;8.18;6.38;;;11.30;99.90;;;;;;6190994;23;20012;-78
2022/09/26 03:52:20;;;;;;;7.72;6.45;;;11.30;99.90;;;;;;6188129;23;19997;-78
2022/09/26 03:54:46;;;;;;;7.18;6.40;;;11.40;99.90;;;;;;6186375;23;20036;-77
2022/09/26 03:57:13;;;;;;;6.45;5.40;;;11.40;99.90;;;;;;6186971;23;20025;-77
2022/09/26 03:59:39;;;;;;;9.68;6.65;;;11.40;99.90;;;;;;6186726;23;20009;-78
2022/09/26 04:02:04;;;;;;;7.53;6.38;;;11.50;99.90;;;;;;6187076;23;20032;-80
2022/09/26 04:04:31;;;;;;;7.15;5.72;;;11.50;99.90;;;;;;6186792;23;20547;-79
2022/09/26 04:06:57;;;;;;;7.32;5.65;;;11.50;99.90;;;;;;6187414;23;20008;-78
2022/09/26 04:09:23;;;;;;;7.97;6.10;;;11.50;99.90;;;;;;6190178;23;20005;-78
2022/09/26 04:11:50;;;;;;;5.70;5.18;;;11.50;99.90;;;;;;6197537;23;20024;-77
2022/09/26 04:14:16;;;;;;;7.45;5.13;;;11.50;99.90;;;;;;6199647;23;20061;-77
2022/09/26 04:16:42;;;;;;;7.22;5.93;;;11.50;99.90;;;;;;6169318;23;20005;-80
2022/09/26 04:19:08;;;;;;;7.45;5.50;;;11.60;99.90;;;;;;6186690;23;20005;-78
2022/09/26 04:21:34;;;;;;;9.93;7.28;;;11.50;99.90;;;;;;6160331;23;20088;-77
2022/09/26 04:24:01;;;;;;;7.40;6.55;;;11.60;99.90;;;;;;6186019;23;20013;-79
2022/09/26 04:26:27;;;;;;;6.45;5.75;;;11.60;99.90;;;;;;6186451;23;20088;-79
2022/09/26 04:28:55;;;;;;;8.50;6.68;;;11.60;99.90;;;;;;6189960;23;20016;-78
2022/09/26 04:31:22;;;;;;;7.18;5.25;;;11.60;99.90;;;;;;6161096;23;20009;-79
2022/09/26 04:33:49;;;;;;;7.28;6.13;;;11.60;99.90;;;;;;6160405;23;20040;-80
2022/09/26 04:36:16;;;;;;;7.63;6.05;;;11.60;99.90;;;;;;6161890;23;20004;-78
2022/09/26 04:38:42;;;;;;;5.60;5.03;;;11.60;99.90;;;;;;6189495;23;20446;-79
2022/09/26 04:41:27;;;;;;;5.03;4.53;;;11.60;99.90;;;;;;6186046;23;20021;-78
2022/09/26 04:43:54;;;;;;;6.15;5.55;;;11.60;99.90;;;;;;6187229;23;20009;-78
2022/09/26 04:46:21;;;;;;;6.72;5.28;;;11.60;99.90;;;;;;6191097;23;20005;-79
2022/09/26 04:48:51;;;;;;;8.10;5.25;;;11.60;99.90;;;;;;6188098;23;19997;-79
2022/09/26 04:51:18;;;;;;;5.15;4.30;;;11.60;99.90;;;;;;6194623;23;20005;-82
2022/09/26 04:53:44;;;;;;;6.10;4.93;;;11.60;99.90;;;;;;6208793;23;20021;-79
2022/09/26 04:56:12;;;;;;;5.07;4.57;;;11.60;99.90;;;;;;6194459;23;20001;-79
2022/09/26 04:58:40;;;;;;;4.43;4.03;;;11.60;99.90;;;;;;6187485;23;20013;-77
2022/09/26 05:01:10;;;;;;;4.88;4.38;;;11.50;99.90;;;;;;6186984;23;20005;-78
2022/09/26 05:03:36;;;;;;;5.03;3.90;;;11.50;99.90;;;;;;6186978;23;20020;-79
2022/09/26 05:06:04;;;;;;;5.57;4.20;;;11.50;99.90;;;;;;6191449;23;20001;-79
2022/09/26 05:08:30;;;;;;;5.78;4.30;;;11.40;99.90;;;;;;6190320;23;20008;-79
2022/09/26 05:10:56;;;;;;;6.82;4.93;;;11.40;99.90;;;;;;6189985;23;20013;-80
2022/09/26 05:13:23;;;;;;;5.95;5.10;;;11.40;99.90;;;;;;6187096;23;20001;-79
2022/09/26 05:15:52;;;;;;;6.78;5.15;;;11.40;99.90;;;;;;6186995;23;20207;-79
2022/09/26 05:18:17;;;;;;;4.68;4.28;;;11.40;99.90;;;;;;6161315;23;20011;-80
2022/09/26 05:20:47;;;;;;;4.80;4.25;;;11.40;99.90;;;;;;6190164;23;20001;-80
2022/09/26 05:28:42;;;;;;;5.25;4.75;;;11.40;99.90;;;;;;6189071;23;20064;-79
2022/09/26 05:31:08;;;;;;;6.72;4.93;;;11.40;99.90;;;;;;6188533;23;20001;-80
2022/09/26 05:33:35;;;;;;;7.28;4.68;;;11.40;99.90;;;;;;6190675;23;20062;-78
2022/09/26 05:36:01;;;;;;;5.70;5.10;;;11.40;99.90;;;;;;6160831;23;20009;-79
2022/09/26 05:38:26;;;;;;;6.15;4.90;;;11.40;99.90;;;;;;6187691;23;20001;-80
2022/09/26 05:40:56;;;;;;;3.80;3.42;;;11.40;99.90;;;;;;6190328;23;20005;-79
2022/09/26 05:43:23;;;;;;;6.68;4.68;;;11.40;99.90;;;;;;6161170;23;20008;-79
2022/09/26 05:45:49;;;;;;;6.07;5.18;;;11.30;99.90;;;;;;6187122;23;20008;-79
2022/09/26 05:48:16;;;;;;;5.55;4.95;;;11.30;99.90;;;;;;6187413;23;20490;-78
2022/09/26 05:50:42;;;;;;;7.57;4.63;;;11.30;99.90;;;;;;6187851;23;20020;-78
2022/09/26 05:53:09;;;;;;;4.80;4.30;;;11.30;99.90;;;;;;6186828;23;20011;-79
2022/09/26 05:55:36;;;;;;;5.35;4.53;;;11.30;99.90;;;;;;6190248;23;20021;-80
2022/09/26 05:58:03;;;;;;;5.65;5.03;;;11.40;99.90;;;;;;6187675;23;20005;-79
2022/09/26 06:00:28;;;;;;;6.80;5.30;;;11.30;99.90;;;;;;6188188;23;20055;-80
2022/09/26 06:03:00;;;;;;;6.43;4.97;;;11.40;99.90;;;;;;6164105;23;20032;-77
2022/09/26 06:05:26;;;;;;;6.00;4.80;;;11.40;99.90;;;;;;6190546;23;20038;-79
2022/09/26 06:07:52;;;;;;;6.15;4.88;;;11.40;99.90;;;;;;6194693;23;20001;-76
2022/09/26 06:10:19;;;;;;;5.68;4.38;;;11.40;99.90;;;;;;6188103;23;20012;-77
2022/09/26 06:12:44;;;;;;;6.53;4.65;;;11.40;99.90;;;;;;6190241;23;20005;-78
2022/09/26 06:15:10;;;;;;;4.30;3.47;;;11.50;99.90;;;;;;6161124;23;20105;-78
2022/09/26 06:17:37;;;;;;;11.50;6.47;;;11.50;99.90;;;;;;6161305;23;20021;-79
2022/09/26 06:20:04;;;;;;;7.47;6.40;;;11.50;99.90;;;;;;6189069;23;20008;-80
2022/09/26 06:22:32;;;;;;;8.32;6.82;;;11.60;99.90;;;;;;6187816;23;20431;-80
2022/09/26 06:24:58;;;;;;;7.55;6.07;;;11.60;99.90;;;;;;6188142;23;20087;-79
2022/09/26 06:27:24;;;;;;;7.15;5.82;;;11.70;99.90;;;;;;6190847;23;20443;-79
2022/09/26 06:29:50;;;;;;;7.88;7.07;;;11.80;99.90;;;;;;6162730;23;20051;-78
2022/09/26 06:32:16;;;;;;;8.88;7.28;;;12.00;99.90;;;;;;6188042;23;20004;-79
2022/09/26 06:34:41;;;;;;;8.07;6.78;;;12.20;99.90;;;;;;6188390;23;20009;-79
2022/09/26 06:37:07;;;;;;;9.30;7.13;;;12.30;99.90;;;;;;6188037;23;20041;-79
2022/09/26 06:39:35;;;;;;;10.57;8.40;;;12.40;99.90;;;;;;6189508;23;20076;-77
2022/09/26 06:42:06;;;;;;;10.50;8.18;;;12.40;99.90;;;;;;6166572;23;20008;-78
2022/09/26 06:44:32;;;;;;;10.93;8.85;;;12.40;99.90;;;;;;6163831;23;20095;-78
2022/09/26 06:47:01;;;;;;;11.73;8.43;;;12.30;99.90;;;;;;6186179;23;20016;-77
2022/09/26 06:49:27;;;;;;;10.73;7.38;;;12.20;99.90;;;;;;6189895;23;20005;-78
2022/09/26 06:51:53;;;;;;;9.02;7.68;;;12.20;99.90;;;;;;6190756;23;20072;-78
2022/09/26 06:54:19;;;;;;;9.88;8.02;;;12.20;99.90;;;;;;6172851;23;20017;-79
2022/09/26 06:56:44;;;;;;;9.90;7.88;;;12.20;99.90;;;;;;6200062;23;20008;-78
2022/09/26 06:59:11;;;;;;;10.95;7.90;;;12.20;99.90;;;;;;6188103;23;20072;-77
2022/09/26 07:01:36;;;;;;;11.82;8.98;;;12.20;99.90;;;;;;6162401;23;20088;-78
2022/09/26 07:04:03;;;;;;;11.00;8.57;;;12.20;99.90;;;;;;6187287;23;20001;-79
2022/09/26 07:06:28;;;;;;;11.43;8.93;;;12.20;99.90;;;;;;6187969;23;20005;-79
2022/09/26 07:08:55;;;;;;;12.85;9.07;;;12.20;99.90;;;;;;6188491;23;20468;-78
2022/09/26 07:11:21;;;;;;;10.63;8.32;;;12.20;99.90;;;;;;6193967;23;20074;-77
2022/09/26 07:13:47;;;;;;;8.73;6.53;;;12.20;99.90;;;;;;6191292;23;20065;-77
2022/09/26 07:16:15;;;;;;;6.68;5.50;;;12.20;99.90;;;;;;6162952;23;20444;-79
2022/09/26 07:18:41;;;;;;;7.70;6.18;;;12.30;99.90;;;;;;6189216;23;20088;-77
2022/09/26 07:21:07;;;;;;;7.45;6.20;;;12.30;99.90;;;;;;6187924;23;20012;-78
2022/09/26 07:23:33;;;;;;;8.15;7.28;;;12.30;99.90;;;;;;6190835;23;20087;-80
2022/09/26 07:25:58;;;;;;;9.45;6.95;;;12.40;99.90;;;;;;6193460;23;20005;-79
2022/09/26 07:28:25;;;;;;;10.90;8.02;;;12.40;99.90;;;;;;6165451;23;20008;-79
2022/09/26 07:30:55;;;;;;;9.65;7.45;;;12.50;99.90;;;;;;6192649;23;20004;-79
2022/09/26 07:33:21;;;;;;;8.63;6.75;;;12.40;99.90;;;;;;6168468;23;20001;-78
2022/09/26 07:35:47;;;;;;;6.97;5.95;;;12.50;99.90;;;;;;6198145;23;20012;-77
2022/09/26 07:38:13;;;;;;;6.05;5.45;;;12.50;99.90;;;;;;6198814;23;20012;-78
2022/09/26 07:40:41;;;;;;;6.45;4.50;;;12.50;99.90;;;;;;6200449;23;20008;-78
2022/09/26 07:43:07;;;;;;;6.93;6.05;;;12.70;99.90;;;;;;6200735;23;20016;-77
2022/09/26 07:51:01;;;;;;;6.72;5.18;;;13.10;99.90;;;;;;6206306;23;20019;-81
2022/09/26 07:53:27;;;;;;;5.45;4.78;;;13.20;99.90;;;;;;6174555;23;20001;-77
2022/09/26 07:56:08;;;;;;;6.80;5.78;;;13.30;99.90;;;;;;6190320;23;20035;-79
2022/09/26 07:58:40;;;;;;;9.38;5.85;;;13.40;99.90;;;;;;6163598;23;20009;-79
2022/09/26 08:01:11;;;;;;;5.95;5.07;;;13.40;99.90;;;;;;6193366;23;19989;-78
2022/09/26 08:03:38;;;;;;;5.35;4.80;;;13.40;99.90;;;;;;6188806;23;20009;-77
2022/09/26 08:06:04;;;;;;;7.50;5.35;;;13.40;99.90;;;;;;6162862;23;20064;-78
2022/09/26 08:08:30;;;;;;;8.73;5.32;;;13.50;99.90;;;;;;6189392;23;20005;-78
2022/09/26 08:10:57;;;;;;;5.85;4.05;;;13.50;99.90;;;;;;6192121;23;20084;-80
2022/09/26 08:13:27;;;;;;;5.47;4.32;;;13.60;99.90;;;;;;6189258;23;20080;-78
2022/09/26 08:15:53;;;;;;;9.23;5.10;;;13.80;99.90;;;;;;6162228;23;20005;-77
2022/09/26 08:18:19;;;;;;;6.95;5.35;;;13.90;99.90;;;;;;6189568;23;20044;-79
2022/09/26 08:20:46;;;;;;;5.78;5.00;;;13.80;99.90;;;;;;6191188;23;20013;-78
2022/09/26 08:24:14;;;;;;;5.63;4.57;;;13.80;99.90;;;;;;6160181;23;20013;-84
2022/09/26 09:41:31;;;;;;;3.65;2.35;;;15.70;91.60;;;;;;6164979;23;20413;-84
2022/09/26 09:48:34;;;;;;;8.70;2.80;;;16.30;86.00;;;;;;6163974;23;20029;-86
2022/09/26 09:54:41;;;;;;;3.65;2.10;;;16.10;89.60;;;;;;6132894;23;20029;-86
2022/09/26 09:57:44;;;;;;;3.35;2.30;;;16.90;88.40;;;;;;6135245;23;20038;-84
2022/09/26 10:01:03;;;;;;;1.55;1.45;;;17.90;85.90;;;;;;6140965;23;20039;-85
2022/09/26 10:07:20;;;;;;;1.75;1.65;;;19.70;72.60;;;;;;6076981;23;20071;-85
2022/09/26 10:13:57;;;;;;;2.53;1.77;;;20.60;69.00;;;;;;6084383;23;20017;-86
2022/09/26 10:16:33;;;;;;;3.83;1.90;;;20.70;66.80;;;;;;6085402;23;20180;-86
2022/09/26 10:19:04;;;;;;;1.75;1.60;;;20.00;66.00;;;;;;6120351;23;20016;-86
2022/09/26 10:21:47;;;;;;;1.90;1.65;;;19.10;67.80;;;;;;6164523;23;20005;-85
2022/09/26 10:24:39;;;;;;;2.72;2.03;;;18.20;70.90;;;;;;6167807;23;20017;-85
2022/09/26 10:27:20;;;;;;;1.80;1.70;;;17.40;73.30;;;;;;6164160;23;20049;-86
2022/09/26 10:29:55;;;;;;;1.73;1.63;;;17.10;76.60;;;;;;6161566;23;20072;-86
2022/09/26 10:32:21;;;;;;;2.45;1.90;;;17.00;77.40;;;;;;6162036;23;20008;-86
2022/09/26 10:35:04;;;;;;;3.50;2.15;;;17.10;75.80;;;;;;6151376;23;20010;-85
2022/09/26 10:37:30;;;;;;;2.10;1.88;;;16.90;75.60;;;;;;6178566;23;20029;-86
2022/09/26 10:42:45;;;;;;;2.83;2.53;;;16.20;79.70;;;;;;6178676;23;20009;-85
2022/09/26 10:45:19;;;;;;;2.95;2.65;;;15.50;87.40;;;;;;6161255;23;20002;-85
2022/09/26 10:47:47;;;;;;;3.17;2.42;;;14.80;91.80;;;;;;6160127;23;20028;-85
2022/09/26 10:50:26;;;;;;;4.00;3.33;;;14.20;93.90;;;;;;6161449;23;20005;-85
2022/09/26 10:53:07;;;;;;;3.50;3.08;;;13.80;95.40;;;;;;6159601;23;20044;-85
2022/09/26 10:55:40;;;;;;;2.33;1.88;;;13.80;98.20;;;;;;6134088;23;20036;-85
2022/09/26 10:58:12;;;;;;;3.40;2.80;;;14.10;99.10;;;;;;6156688;23;20076;-85
2022/09/26 11:00:50;;;;;;;2.55;1.90;;;14.40;98.40;;;;;;6159670;23;20056;-86
2022/09/26 11:03:23;;;;;;;2.45;2.25;;;14.70;97.80;;;;;;6159646;23;20332;-84
2022/09/26 11:05:58;;;;;;;6.90;2.90;;;14.90;98.20;;;;;;6159427;23;20049;-85
2022/09/26 11:08:29;;;;;;;4.85;2.95;;;15.10;95.60;;;;;;6133125;23;20025;-85
2022/09/26 11:11:12;;;;;;;3.33;2.35;;;15.10;94.90;;;;;;6157289;23;20498;-85
2022/09/26 11:13:48;;;;;;;2.05;1.85;;;15.00;95.50;;;;;;6157181;23;20044;-85
2022/09/26 11:16:17;;;;;;;3.92;2.95;;;15.00;95.80;;;;;;6132099;23;20010;-85
2022/09/26 11:18:50;;;;;;;2.58;2.38;;;15.10;94.80;;;;;;6165822;23;19993;-86
2022/09/26 11:21:24;;;;;;;;;;;15.20;95.10;;;;;;6159441;23;20001;-84
2022/09/26 11:24:18;;;;;;;2.95;2.13;;;15.40;95.40;;;;;;6161858;23;19909;-85
2022/09/26 11:26:48;;;;;;;14.02;11.10;;;15.70;94.20;;;;;;6167141;23;20060;-85
2022/09/26 11:29:36;;;;;;;12.48;9.10;;;15.90;91.70;;;;;;6160805;23;20421;-86
2022/09/26 11:32:03;;;;;;;37.40;21.73;;;16.00;91.50;;;;;;6156664;23;20009;-85
2022/09/26 11:34:32;;;;;;;41.08;22.75;;;16.20;92.20;;;;;;6162134;23;20428;-85
2022/09/26 11:37:01;;;;;;;23.30;15.98;;;16.30;90.70;;;;;;6160869;23;20084;-85
2022/09/26 11:39:36;;;;;;;32.63;28.77;;;16.40;90.70;;;;;;6135101;23;20306;-85
2022/09/26 11:42:29;;;;;;;11.25;8.23;;;16.50;88.70;;;;;;6135276;23;20009;-86
2022/09/26 11:45:39;;;;;;;42.78;20.50;;;16.60;88.20;;;;;;6161303;23;19993;-86
2022/09/26 11:48:37;;;;;;;10.40;3.65;;;16.80;87.00;;;;;;6122909;23;20056;-86
2022/09/26 11:51:24;;;;;;;3.55;2.40;;;16.90;86.40;;;;;;6096054;23;20012;-86
2022/09/26 11:54:05;;;;;;;32.47;14.88;;;17.20;85.90;;;;;;6161214;23;20006;-85
2022/09/26 11:56:40;;;;;;;39.67;22.38;;;17.50;82.30;;;;;;6165754;23;20010;-85
2022/09/26 11:59:24;;;;;;;23.23;14.57;;;17.60;80.10;;;;;;6165098;23;20001;-86
2022/09/26 12:02:14;;;;;;;4.13;3.72;;;17.90;79.70;;;;;;6163822;23;20045;-86
2022/09/26 12:05:12;;;;;;;3.83;3.53;;;18.10;73.00;;;;;;6161885;23;19998;-85
2022/09/26 12:07:57;;;;;;;6.85;5.28;;;18.00;74.40;;;;;;6151443;23;20016;-86
2022/09/26 12:10:30;;;;;;;2.25;2.10;;;17.90;75.60;;;;;;6183507;23;20022;-85
2022/09/26 12:13:07;;;;;;;4.32;3.72;;;17.70;75.60;;;;;;6181987;23;20044;-87
2022/09/26 12:16:01;;;;;;;2.92;2.40;;;17.60;76.00;;;;;;6181180;23;19996;-84
2022/09/26 12:18:47;;;;;;;2.67;1.95;;;17.40;75.70;;;;;;6180308;23;19986;-85
2022/09/26 12:22:27;;;;;;;2.10;1.70;;;17.30;77.00;;;;;;6180896;23;20061;-84
2022/09/26 12:24:44;;;;;;;1.48;1.38;;;17.40;77.50;;;;;;6171260;23;20095;-86
2022/09/26 12:27:21;;;;;;;1.38;1.27;;;17.20;76.10;;;;;;6144092;23;20008;-85
2022/09/26 12:30:12;;;;;;;1.52;1.20;;;17.20;77.10;;;;;;6146856;23;20008;-84
2022/09/26 12:32:57;;;;;;;1.52;1.42;;;17.20;78.00;;;;;;6139468;23;20058;-85
2022/09/26 12:36:05;;;;;;;1.42;1.33;;;17.40;76.30;;;;;;6166292;23;19997;-86
2022/09/26 12:38:59;;;;;;;1.70;1.55;;;17.60;76.70;;;;;;6149255;23;20475;-85
2022/09/26 12:41:44;;;;;;;1.55;1.45;;;18.20;74.70;;;;;;6167703;23;20040;-85
2022/09/26 12:44:30;;;;;;;1.08;1.02;;;18.90;72.50;;;;;;6165246;23;20036;-84
2022/09/26 12:46:58;;;;;;;1.25;1.15;;;19.60;71.30;;;;;;6167548;23;20005;-85
2022/09/26 12:49:48;;;;;;;1.67;1.20;;;19.90;69.00;;;;;;6140402;23;20036;-86
2022/09/26 12:52:28;;;;;;;1.92;1.67;;;19.80;68.00;;;;;;6167176;23;20001;-86
2022/09/26 12:55:14;;;;;;;1.70;1.50;;;19.60;66.40;;;;;;6167549;23;19998;-85
2022/09/26 12:58:01;;;;;;;2.63;1.92;;;19.50;65.50;;;;;;6142307;23;20032;-85
2022/09/26 13:00:37;;;;;;;1.52;1.42;;;19.50;63.90;;;;;;6142509;23;20330;-84
2022/09/26 13:21:42;;;;;;;2.38;2.17;;;17.30;74.30;;;;;;6200265;23;20017;-84
2022/09/26 13:31:57;;;;;;;2.33;1.80;;;17.10;75.30;;;;;;5937428;24;20015;-85
2022/09/26 13:34:50;;;;;;;1.27;1.10;;;17.10;76.80;;;;;;5915566;24;20013;-87
2022/09/26 13:41:32;;;;;;;2.05;1.63;;;17.10;76.00;;;;;;5991087;24;20040;-85
2022/09/26 14:25:43;;;;;;;2.55;1.63;;;19.40;57.00;;;;;;6171439;23;20028;-79
2022/09/26 14:28:31;;;;;;;1.00;1.00;;;19.00;58.50;;;;;;6192080;23;20009;-79
2022/09/26 14:31:26;;;;;;;1.40;1.30;;;19.10;59.60;;;;;;6194828;23;20032;-80
2022/09/26 14:34:22;;;;;;;1.30;1.20;;;19.20;59.00;;;;;;6174053;23;20557;-80
2022/09/26 14:36:52;;;;;;;2.25;1.20;;;19.20;58.80;;;;;;6192345;23;20003;-80
2022/09/26 14:39:41;;;;;;;2.15;1.50;;;19.10;58.40;;;;;;6216349;23;20432;-80
2022/09/26 14:42:17;;;;;;;3.38;1.42;;;19.10;57.00;;;;;;6192376;23;20004;-79
2022/09/26 14:45:15;;;;;;;2.28;1.20;;;18.90;58.00;;;;;;6189148;23;20023;-80
2022/09/26 14:48:10;;;;;;;1.63;1.20;;;18.90;58.70;;;;;;6173784;23;20039;-80
2022/09/26 14:50:46;;;;;;;1.25;1.15;;;18.90;57.80;;;;;;6150758;23;20458;-80
2022/09/26 14:53:59;;;;;;;3.10;1.58;;;18.60;56.60;;;;;;6193308;23;20005;-79
2022/09/26 14:56:42;;;;;;;1.63;1.52;;;18.50;57.10;;;;;;6187828;23;20013;-80
2022/09/26 14:59:24;;;;;;;3.45;1.20;;;18.40;57.20;;;;;;6197777;23;20008;-79
2022/09/26 15:01:51;;;;;;;66.22;30.95;;;18.40;58.10;;;;;;6204630;23;19997;-80
2022/09/26 15:04:23;;;;;;;28.25;14.52;;;18.20;57.30;;;;;;6196226;23;20023;-80
2022/09/26 15:07:11;;;;;;;26.38;12.15;;;18.10;58.40;;;;;;6199335;23;20001;-79
2022/09/26 15:09:42;;;;;;;12.88;6.82;;;17.90;58.30;;;;;;6205418;23;19997;-79
2022/09/26 15:12:10;;;;;;;2.65;1.90;;;17.80;57.70;;;;;;6197551;23;20004;-80
2022/09/26 15:14:42;;;;;;;1.33;1.23;;;17.80;57.10;;;;;;6196838;23;19997;-80
2022/09/26 15:17:19;;;;;;;;;;;17.70;56.80;;;;;;6204824;23;20001;-80
2022/09/26 15:19:53;;;;;;;1.73;1.63;;;17.60;56.90;;;;;;6206501;23;19951;-80
2022/09/26 15:22:22;;;;;;;1.60;1.00;;;17.50;57.60;;;;;;6205400;23;20005;-80
2022/09/26 15:24:53;;;;;;;2.15;1.17;;;17.50;57.80;;;;;;6217309;23;20092;-80
2022/09/26 15:27:25;;;;;;;2.53;1.27;;;17.50;57.60;;;;;;6196588;23;20001;-81
2022/09/26 15:29:56;;;;;;;1.23;0.90;;;17.40;57.70;;;;;;6207373;23;19997;-80
2022/09/26 15:32:27;;;;;;;2.70;1.00;;;17.30;57.90;;;;;;6203496;23;19997;-80
2022/09/26 15:34:54;;;;;;;1.67;1.30;;;17.20;58.50;;;;;;6192317;23;20028;-80
2022/09/26 15:37:30;;;;;;;1.73;1.50;;;17.10;58.70;;;;;;6195377;23;20031;-80
2022/09/26 15:40:09;;;;;;;1.52;1.42;;;17.10;57.80;;;;;;6203696;23;20001;-80
2022/09/26 15:45:28;;;;;;;1.17;1.05;;;16.80;59.00;;;;;;6202762;23;20047;-79
2022/09/26 15:48:04;;;;;;;0.70;0.70;;;16.70;59.60;;;;;;6198096;23;20025;-79
2022/09/26 15:50:42;;;;;;;1.15;1.10;;;16.70;60.10;;;;;;6190331;23;20090;-79
2022/09/26 15:53:38;;;;;;;1.73;1.17;;;16.70;60.10;;;;;;6195836;23;19997;-80
2022/09/26 15:56:06;;;;;;;1.40;1.20;;;16.60;60.40;;;;;;6193875;23;20005;-80
2022/09/26 15:58:45;;;;;;;1.15;1.00;;;16.40;61.10;;;;;;6194208;23;20359;-80
2022/09/26 16:01:19;;;;;;;1.60;1.45;;;16.20;61.80;;;;;;6196628;23;20012;-80
2022/09/26 16:04:02;;;;;;;1.45;1.05;;;15.90;62.50;;;;;;6195456;23;20020;-81
2022/09/26 16:06:35;;;;;;;2.65;1.33;;;15.80;63.40;;;;;;6196649;23;20317;-80
2022/09/26 16:09:10;;;;;;;3.70;1.55;;;15.60;63.90;;;;;;6193932;23;20048;-79
2022/09/26 16:11:52;;;;;;;1.50;1.40;;;15.30;64.90;;;;;;6196042;23;20001;-80
2022/09/26 16:14:31;;;;;;;1.50;1.20;;;15.20;65.70;;;;;;6193434;23;20015;-79
2022/09/26 16:17:19;;;;;;;2.20;1.63;;;15.10;66.30;;;;;;6193233;23;20005;-79
2022/09/26 16:19:49;;;;;;;1.75;1.48;;;15.00;66.70;;;;;;6195390;23;20076;-78
2022/09/26 16:22:39;;;;;;;1.85;1.40;;;14.90;67.10;;;;;;6194732;23;20469;-79